createdAt,value
2022-09-15T00:00:06.062Z,1.23
2022-09-15T00:01:06.057Z,1.23
2022-09-15T00:02:06.199Z,1.40
2022-09-15T00:03:06.130Z,1.09
2022-09-15T00:04:06.038Z,1.18
2022-09-15T00:06:06.049Z,1.21
2022-09-15T00:07:06.057Z,1.13
2022-09-15T00:08:06.182Z,1.16
2022-09-15T00:09:06.070Z,1.00
2022-09-15T00:10:06.063Z,1.39
2022-09-15T00:11:06.086Z,1.38
2022-09-15T00:12:06.075Z,1.23
2022-09-15T00:13:06.085Z,1.08
2022-09-15T00:14:06.065Z,1.37
2022-09-15T00:15:06.184Z,1.19
2022-09-15T00:16:06.180Z,1.34
2022-09-15T00:17:06.234Z,0.89
2022-09-15T00:18:06.177Z,1.13
2022-09-15T00:22:06.196Z,1.24
2022-09-15T00:23:06.202Z,1.41
2022-09-15T00:24:06.201Z,1.22
2022-09-15T00:25:06.196Z,1.19
2022-09-15T00:26:06.212Z,1.02
2022-09-15T00:27:06.206Z,0.91
2022-09-15T00:28:06.201Z,1.02
2022-09-15T00:30:06.231Z,0.93
2022-09-15T00:34:06.214Z,0.98
2022-09-15T00:35:06.221Z,0.87
2022-09-15T00:37:06.219Z,0.71
2022-09-15T00:38:06.221Z,0.94
2022-09-15T00:41:06.266Z,0.62
2022-09-15T00:42:06.217Z,0.87
2022-09-15T00:43:06.266Z,1.21
2022-09-15T00:45:06.261Z,1.16
2022-09-15T00:46:06.312Z,1.06
2022-09-15T00:47:18.721Z,1.13
2022-09-15T00:48:06.248Z,0.77
2022-09-15T00:50:06.257Z,0.88
2022-09-15T00:51:06.251Z,0.94
2022-09-15T00:52:06.300Z,0.94
2022-09-15T00:53:06.276Z,0.67
2022-09-15T00:54:06.265Z,0.91
2022-09-15T00:55:06.265Z,0.81
2022-09-15T00:56:06.266Z,0.71
2022-09-15T00:57:06.286Z,0.86
2022-09-15T00:58:06.264Z,0.97
2022-09-15T00:59:06.251Z,0.85
2022-09-15T01:00:06.270Z,0.83
2022-09-15T01:01:06.326Z,0.99
2022-09-15T01:02:06.345Z,1.10
2022-09-15T01:03:06.284Z,0.89
2022-09-15T01:04:06.270Z,1.08
2022-09-15T01:06:06.297Z,0.77
2022-09-15T01:07:06.268Z,0.98
2022-09-15T01:08:06.266Z,0.96
2022-09-15T01:09:09.475Z,0.84
2022-09-15T01:10:06.265Z,1.18
2022-09-15T01:11:06.293Z,0.92
2022-09-15T01:12:06.264Z,0.95
2022-09-15T01:13:06.268Z,1.02
2022-09-15T01:14:06.274Z,0.84
2022-09-15T01:15:06.255Z,0.95
2022-09-15T01:16:06.311Z,1.00
2022-09-15T01:17:06.262Z,0.87
2022-09-15T01:18:06.276Z,0.99
2022-09-15T01:19:06.247Z,1.13
2022-09-15T01:20:06.263Z,0.82
2022-09-15T01:21:06.318Z,0.99
2022-09-15T01:22:06.265Z,0.94
2022-09-15T01:23:06.283Z,1.14
2022-09-15T01:24:06.272Z,0.79
2022-09-15T01:25:06.264Z,0.80
2022-09-15T01:26:06.256Z,0.95
2022-09-15T01:27:18.770Z,0.76
2022-09-15T01:28:06.259Z,1.02
2022-09-15T01:29:06.265Z,0.93
2022-09-15T01:30:06.266Z,1.14
2022-09-15T01:31:06.287Z,0.61
2022-09-15T01:32:06.348Z,0.99
2022-09-15T01:33:06.300Z,0.86
2022-09-15T01:34:06.307Z,0.99
2022-09-15T01:35:06.299Z,1.08
2022-09-15T01:36:06.297Z,1.03
2022-09-15T01:39:06.324Z,1.26
2022-09-15T01:40:06.339Z,1.28
2022-09-15T01:41:06.301Z,0.93
2022-09-15T01:42:06.314Z,0.93
2022-09-15T01:43:06.304Z,1.08
2022-09-15T01:44:06.342Z,0.83
2022-09-15T01:45:06.317Z,0.90
2022-09-15T01:46:09.716Z,1.10
2022-09-15T01:47:06.321Z,1.01
2022-09-15T01:48:06.323Z,0.81
2022-09-15T01:49:06.331Z,1.01
2022-09-15T01:50:06.311Z,1.05
2022-09-15T01:51:06.324Z,0.85
2022-09-15T01:52:06.344Z,0.79
2022-09-15T01:53:06.339Z,0.98
2022-09-15T01:55:06.346Z,0.95
2022-09-15T01:56:06.354Z,0.87
2022-09-15T01:57:06.337Z,0.93
2022-09-15T01:58:06.360Z,1.01
2022-09-15T01:59:06.357Z,0.96
2022-09-15T02:00:06.333Z,0.87
2022-09-15T02:01:06.385Z,1.26
2022-09-15T02:02:06.371Z,0.83
2022-09-15T02:03:06.374Z,0.85
2022-09-15T02:04:06.361Z,1.08
2022-09-15T02:05:06.366Z,0.96
2022-09-15T02:06:06.375Z,0.95
2022-09-15T02:07:06.365Z,0.76
2022-09-15T02:08:06.380Z,0.98
2022-09-15T02:09:06.399Z,0.87
2022-09-15T02:10:06.401Z,0.96
2022-09-15T02:11:06.399Z,1.11
2022-09-15T02:13:06.388Z,0.78
2022-09-15T02:14:06.387Z,0.88
2022-09-15T02:18:06.413Z,1.10
2022-09-15T02:20:06.393Z,0.83
2022-09-15T02:21:06.391Z,0.86
2022-09-15T02:24:06.420Z,0.88
2022-09-15T02:29:06.447Z,0.76
2022-09-15T02:30:06.435Z,1.01
2022-09-15T02:33:06.430Z,0.99
2022-09-15T02:34:06.441Z,0.98
2022-09-15T02:36:06.453Z,0.90
2022-09-15T02:37:06.437Z,0.90
2022-09-15T02:38:06.457Z,0.95
2022-09-15T02:39:06.467Z,0.73
2022-09-15T02:40:06.499Z,0.75
2022-09-15T02:41:06.459Z,0.70
2022-09-15T02:42:06.470Z,0.60
2022-09-15T02:43:06.477Z,0.96
2022-09-15T02:44:06.461Z,1.24
2022-09-15T02:45:06.462Z,1.04
2022-09-15T02:46:06.538Z,0.81
2022-09-15T02:47:06.492Z,0.75
2022-09-15T02:48:06.500Z,0.71
2022-09-15T02:49:06.499Z,0.95
2022-09-15T02:50:06.487Z,0.82
2022-09-15T02:51:06.497Z,0.99
2022-09-15T02:52:06.499Z,0.76
2022-09-15T02:53:06.490Z,0.77
2022-09-15T02:54:06.494Z,0.89
2022-09-15T02:57:06.493Z,0.70
2022-09-15T02:58:06.516Z,0.75
2022-09-15T02:59:06.500Z,0.73
2022-09-15T03:00:10.055Z,0.85
2022-09-15T03:01:06.589Z,0.69
2022-09-15T03:02:06.548Z,0.61
2022-09-15T03:03:06.513Z,0.87
2022-09-15T03:04:06.513Z,0.86
2022-09-15T03:05:06.522Z,0.76
2022-09-15T03:06:06.551Z,0.88
2022-09-15T03:07:06.534Z,0.76
2022-09-15T03:08:06.534Z,1.01
2022-09-15T03:09:06.537Z,0.60
2022-09-15T03:11:06.551Z,1.00
2022-09-15T03:12:06.531Z,0.85
2022-09-15T03:13:06.568Z,0.59
2022-09-15T03:14:06.564Z,0.54
2022-09-15T03:15:06.539Z,0.72
2022-09-15T03:17:06.571Z,0.57
2022-09-15T03:18:06.564Z,0.74
2022-09-15T03:19:06.563Z,0.65
2022-09-15T03:20:06.546Z,0.57
2022-09-15T03:21:06.567Z,0.61
2022-09-15T03:22:06.571Z,0.65
2022-09-15T03:23:06.571Z,0.50
2022-09-15T03:27:06.592Z,0.70
2022-09-15T03:28:06.608Z,0.49
2022-09-15T03:29:06.592Z,0.57
2022-09-15T03:30:06.599Z,0.84
2022-09-15T03:31:06.683Z,0.55
2022-09-15T03:34:06.592Z,0.72
2022-09-15T03:35:06.593Z,0.82
2022-09-15T03:36:06.584Z,0.69
2022-09-15T03:37:10.274Z,0.81
2022-09-15T03:38:06.605Z,0.73
2022-09-15T03:40:06.720Z,1.07
2022-09-15T03:41:06.594Z,0.77
2022-09-15T03:43:06.621Z,0.65
2022-09-15T03:44:06.613Z,0.78
2022-09-15T03:45:06.635Z,0.83
2022-09-15T03:46:06.771Z,0.76
2022-09-15T03:47:06.613Z,0.78
2022-09-15T03:48:06.645Z,0.63
2022-09-15T03:50:06.657Z,0.76
2022-09-15T03:51:06.668Z,1.03
2022-09-15T03:52:06.646Z,1.01
2022-09-15T03:53:06.661Z,0.62
2022-09-15T03:54:06.642Z,0.87
2022-09-15T03:55:06.659Z,0.95
2022-09-15T03:57:06.693Z,0.98
2022-09-15T04:01:06.736Z,0.78
2022-09-15T04:02:06.701Z,1.02
2022-09-15T04:03:06.685Z,1.06
2022-09-15T04:04:06.680Z,1.17
2022-09-15T04:05:06.680Z,0.72
2022-09-15T04:06:06.675Z,0.89
2022-09-15T04:07:06.691Z,1.01
2022-09-15T04:08:06.682Z,0.84
2022-09-15T04:09:06.715Z,1.35
2022-09-15T04:10:06.703Z,0.83
2022-09-15T04:11:06.738Z,0.78
2022-09-15T04:12:06.704Z,0.78
2022-09-15T04:13:06.714Z,0.88
2022-09-15T04:14:10.491Z,0.96
2022-09-15T04:15:06.713Z,0.62
2022-09-15T04:16:06.761Z,0.95
2022-09-15T04:17:06.699Z,0.81
2022-09-15T04:18:06.716Z,0.93
2022-09-15T04:19:06.713Z,0.93
2022-09-15T04:21:06.720Z,0.89
2022-09-15T04:22:06.733Z,1.06
2022-09-15T04:23:06.710Z,1.10
2022-09-15T04:24:06.732Z,0.92
2022-09-15T04:26:06.728Z,1.06
2022-09-15T04:28:06.758Z,0.88
2022-09-15T04:29:06.737Z,0.97
2022-09-15T04:30:06.741Z,0.83
2022-09-15T04:31:06.797Z,0.98
2022-09-15T04:32:06.744Z,1.05
2022-09-15T04:33:06.756Z,0.75
2022-09-15T04:35:06.737Z,1.07
2022-09-15T04:36:06.764Z,0.95
2022-09-15T04:37:06.761Z,1.10
2022-09-15T04:39:06.802Z,0.91
2022-09-15T04:40:06.810Z,1.03
2022-09-15T04:41:06.748Z,0.99
2022-09-15T04:42:06.783Z,1.17
2022-09-15T04:43:06.755Z,1.05
2022-09-15T04:44:06.795Z,0.98
2022-09-15T04:45:06.781Z,0.92
2022-09-15T04:46:06.786Z,0.96
2022-09-15T04:47:06.818Z,0.91
2022-09-15T04:50:06.804Z,1.05
2022-09-15T04:51:10.652Z,1.05
2022-09-15T04:52:09.715Z,0.74
2022-09-15T04:53:06.797Z,1.16
2022-09-15T04:54:06.810Z,1.27
2022-09-15T04:55:06.810Z,0.94
2022-09-15T04:56:06.815Z,1.10
2022-09-15T04:58:06.825Z,1.32
2022-09-15T04:59:06.813Z,1.36
2022-09-15T05:00:06.815Z,1.30
2022-09-15T05:01:06.924Z,1.04
2022-09-15T05:03:06.815Z,0.81
2022-09-15T05:04:06.802Z,0.87
2022-09-15T05:05:06.809Z,1.06
2022-09-15T05:06:06.834Z,1.04
2022-09-15T05:07:06.847Z,1.37
2022-09-15T05:08:06.822Z,1.66
2022-09-15T05:09:10.011Z,1.96
2022-09-15T05:10:06.831Z,1.80
2022-09-15T05:11:06.852Z,2.27
2022-09-15T05:12:06.856Z,2.05
2022-09-15T05:13:06.840Z,1.93
2022-09-15T05:14:06.859Z,1.74
2022-09-15T05:17:06.849Z,1.55
2022-09-15T05:18:06.871Z,1.48
2022-09-15T05:19:06.860Z,1.68
2022-09-15T05:20:06.861Z,1.70
2022-09-15T05:22:06.877Z,1.66
2022-09-15T05:23:06.869Z,2.02
2022-09-15T05:24:06.892Z,2.09
2022-09-15T05:26:06.889Z,1.34
2022-09-15T05:27:06.879Z,2.21
2022-09-15T05:28:10.879Z,2.93
2022-09-15T05:29:06.916Z,1.82
2022-09-15T05:30:35.209Z,1.60
2022-09-15T05:32:06.909Z,2.36
2022-09-15T05:33:06.895Z,1.96
2022-09-15T05:34:06.897Z,1.90
2022-09-15T05:35:06.914Z,1.44
2022-09-15T05:36:06.917Z,2.88
2022-09-15T05:38:06.921Z,2.39
2022-09-15T05:39:06.927Z,2.68
2022-09-15T05:41:06.923Z,1.60
2022-09-15T05:42:06.942Z,2.06
2022-09-15T05:43:06.946Z,1.49
2022-09-15T05:46:07.029Z,1.20
2022-09-15T05:48:06.946Z,1.14
2022-09-15T05:49:06.990Z,1.25
2022-09-15T05:50:06.942Z,0.80
2022-09-15T05:52:06.969Z,1.14
2022-09-15T05:53:06.965Z,1.21
2022-09-15T05:54:06.978Z,1.42
2022-09-15T05:55:06.962Z,1.08
2022-09-15T05:57:06.988Z,1.43
2022-09-15T05:58:06.968Z,1.19
2022-09-15T05:59:06.968Z,1.33
2022-09-15T06:00:06.968Z,1.45
2022-09-15T06:01:06.983Z,1.56
2022-09-15T06:02:07.073Z,1.17
2022-09-15T06:03:07.204Z,1.12
2022-09-15T06:04:06.986Z,1.36
2022-09-15T06:05:11.098Z,1.27
2022-09-15T06:06:07.000Z,1.45
2022-09-15T06:07:07.006Z,1.70
2022-09-15T06:08:07.007Z,1.55
2022-09-15T06:09:07.003Z,1.67
2022-09-15T06:10:06.990Z,1.36
2022-09-15T06:11:06.998Z,1.53
2022-09-15T06:12:07.005Z,1.23
2022-09-15T06:14:07.021Z,1.72
2022-09-15T06:15:07.002Z,1.32
2022-09-15T06:16:07.090Z,1.79
2022-09-15T06:19:07.031Z,2.34
2022-09-15T06:22:07.041Z,1.57
2022-09-15T06:23:07.117Z,1.41
2022-09-15T06:24:07.307Z,1.17
2022-09-15T06:26:07.049Z,1.50
2022-09-15T06:27:07.026Z,1.33
2022-09-15T06:28:07.068Z,1.31
2022-09-15T06:29:07.028Z,1.39
2022-09-15T06:30:07.037Z,1.25
2022-09-15T06:31:07.067Z,1.38
2022-09-15T06:34:07.049Z,1.48
2022-09-15T06:35:07.071Z,1.45
2022-09-15T06:36:07.085Z,1.37
2022-09-15T06:39:07.083Z,1.47
2022-09-15T06:40:07.123Z,1.50
2022-09-15T06:41:07.089Z,1.22
2022-09-15T06:42:13.827Z,1.43
2022-09-15T06:46:07.138Z,1.60
2022-09-15T06:48:23.343Z,1.18
2022-09-15T06:49:07.110Z,1.50
2022-09-15T06:50:07.102Z,1.48
2022-09-15T06:51:07.107Z,1.16
2022-09-15T06:52:07.118Z,1.10
2022-09-15T06:53:07.111Z,1.59
2022-09-15T06:54:07.107Z,1.43
2022-09-15T06:56:07.124Z,1.55
2022-09-15T06:57:07.126Z,1.53
2022-09-15T06:58:07.135Z,1.75
2022-09-15T07:00:07.157Z,1.55
2022-09-15T07:01:07.132Z,2.08
2022-09-15T07:02:07.246Z,1.77
2022-09-15T07:03:07.257Z,1.36
2022-09-15T07:04:07.115Z,1.54
2022-09-15T07:05:07.218Z,1.32
2022-09-15T07:06:07.184Z,1.40
2022-09-15T07:07:07.155Z,1.49
2022-09-15T07:08:07.156Z,1.53
2022-09-15T07:10:07.161Z,1.30
2022-09-15T07:11:07.178Z,1.30
2022-09-15T07:14:07.157Z,1.24
2022-09-15T07:15:07.226Z,1.31
2022-09-15T07:16:07.166Z,1.40
2022-09-15T07:17:07.174Z,1.60
2022-09-15T07:18:07.167Z,1.41
2022-09-15T07:20:07.169Z,1.46
2022-09-15T07:21:07.204Z,1.73
2022-09-15T07:22:07.175Z,1.14
2022-09-15T07:23:07.162Z,1.85
2022-09-15T07:24:07.715Z,1.33
2022-09-15T07:25:07.173Z,1.61
2022-09-15T07:26:07.200Z,1.47
2022-09-15T07:27:07.177Z,1.59
2022-09-15T07:29:07.213Z,1.41
2022-09-15T07:30:07.218Z,1.58
2022-09-15T07:31:07.205Z,1.64
2022-09-15T07:32:07.249Z,1.35
2022-09-15T07:35:07.247Z,1.67
2022-09-15T07:36:07.208Z,1.57
2022-09-15T07:37:07.230Z,1.65
2022-09-15T07:38:07.254Z,1.60
2022-09-15T07:39:07.225Z,1.54
2022-09-15T07:40:07.337Z,1.42
2022-09-15T07:41:07.251Z,1.75
2022-09-15T07:42:07.237Z,1.41
2022-09-15T07:44:07.241Z,1.26
2022-09-15T07:45:07.261Z,1.80
2022-09-15T07:46:07.342Z,1.58
2022-09-15T07:47:07.262Z,1.64
2022-09-15T07:48:07.263Z,2.00
2022-09-15T07:49:07.290Z,1.83
2022-09-15T07:50:07.269Z,1.97
2022-09-15T07:51:07.252Z,1.82
2022-09-15T07:52:07.265Z,1.70
2022-09-15T07:53:07.257Z,1.79
2022-09-15T07:54:07.272Z,1.70
2022-09-15T07:55:07.277Z,1.66
2022-09-15T07:57:07.305Z,1.84
2022-09-15T07:58:07.263Z,1.98
2022-09-15T07:59:07.290Z,1.72
2022-09-15T08:00:07.292Z,1.85
2022-09-15T08:01:07.378Z,1.92
2022-09-15T08:02:07.469Z,2.19
2022-09-15T08:03:07.282Z,1.74
2022-09-15T08:04:07.294Z,1.71
2022-09-15T08:05:07.304Z,2.16
2022-09-15T08:07:07.294Z,1.44
2022-09-15T08:08:07.296Z,2.07
2022-09-15T08:09:07.297Z,1.98
2022-09-15T08:11:07.341Z,1.81
2022-09-15T08:13:07.315Z,2.50
2022-09-15T08:14:07.298Z,2.06
2022-09-15T08:15:07.318Z,2.05
2022-09-15T08:16:07.369Z,2.11
2022-09-15T08:17:11.363Z,2.25
2022-09-15T08:18:07.331Z,1.91
2022-09-15T08:19:07.316Z,2.21
2022-09-15T08:20:07.353Z,2.12
2022-09-15T08:21:07.329Z,2.36
2022-09-15T08:22:07.349Z,2.03
2022-09-15T08:23:07.368Z,2.15
2022-09-15T08:24:07.315Z,1.81
2022-09-15T08:25:07.381Z,2.49
2022-09-15T08:26:10.624Z,2.34
2022-09-15T08:27:07.362Z,2.10
2022-09-15T08:28:07.360Z,1.90
2022-09-15T08:29:07.373Z,2.36
2022-09-15T08:30:07.374Z,2.12
2022-09-15T08:31:07.450Z,1.93
2022-09-15T08:32:07.382Z,2.01
2022-09-15T08:33:11.658Z,2.15
2022-09-15T08:34:07.385Z,2.34
2022-09-15T08:35:07.388Z,2.52
2022-09-15T08:36:07.404Z,2.25
2022-09-15T08:37:07.359Z,2.25
2022-09-15T08:38:07.402Z,2.34
2022-09-15T08:39:07.408Z,2.33
2022-09-15T08:40:07.418Z,2.21
2022-09-15T08:43:07.446Z,2.14
2022-09-15T08:48:07.415Z,2.25
2022-09-15T08:49:07.417Z,2.64
2022-09-15T08:50:07.400Z,2.45
2022-09-15T08:52:07.444Z,2.23
2022-09-15T08:53:07.402Z,2.24
2022-09-15T08:54:07.413Z,2.23
2022-09-15T08:55:07.428Z,2.32
2022-09-15T08:56:09.883Z,2.10
2022-09-15T08:57:07.422Z,2.24
2022-09-15T08:58:07.429Z,2.12
2022-09-15T08:59:07.444Z,2.63
2022-09-15T09:00:07.427Z,2.04
2022-09-15T09:02:07.549Z,2.40
2022-09-15T09:03:07.564Z,2.24
2022-09-15T09:04:07.436Z,1.93
2022-09-15T09:05:07.456Z,1.95
2022-09-15T09:07:07.499Z,1.87
2022-09-15T09:08:07.459Z,2.01
2022-09-15T09:09:07.444Z,1.89
2022-09-15T09:10:11.858Z,1.89
2022-09-15T09:11:07.451Z,1.93
2022-09-15T09:12:07.481Z,2.07
2022-09-15T09:13:07.458Z,2.15
2022-09-15T09:14:07.470Z,2.05
2022-09-15T09:15:07.482Z,1.93
2022-09-15T09:16:07.559Z,2.01
2022-09-15T09:17:07.504Z,2.02
2022-09-15T09:18:07.502Z,1.74
2022-09-15T09:19:07.467Z,2.18
2022-09-15T09:21:07.478Z,2.11
2022-09-15T09:22:07.558Z,2.05
2022-09-15T09:23:07.496Z,1.63
2022-09-15T09:24:07.492Z,2.27
2022-09-15T09:25:25.870Z,1.78
2022-09-15T09:26:10.357Z,1.75
2022-09-15T09:27:07.535Z,1.78
2022-09-15T09:28:07.528Z,2.03
2022-09-15T09:29:07.501Z,2.05
2022-09-15T09:30:07.511Z,2.03
2022-09-15T09:31:07.615Z,1.69
2022-09-15T09:33:07.531Z,1.69
2022-09-15T09:34:07.518Z,1.98
2022-09-15T09:35:09.045Z,1.57
2022-09-15T09:36:07.511Z,1.45
2022-09-15T09:37:07.559Z,1.62
2022-09-15T09:38:07.608Z,2.01
2022-09-15T09:39:07.537Z,2.39
2022-09-15T09:40:07.612Z,1.94
2022-09-15T09:41:07.562Z,1.98
2022-09-15T09:42:07.565Z,2.39
2022-09-15T09:43:07.734Z,1.84
2022-09-15T09:44:07.569Z,1.64
2022-09-15T09:45:07.562Z,2.13
2022-09-15T09:46:07.623Z,1.48
2022-09-15T09:47:11.988Z,1.69
2022-09-15T09:48:07.581Z,1.54
2022-09-15T09:49:07.610Z,1.73
2022-09-15T09:50:07.581Z,1.62
2022-09-15T09:51:07.571Z,1.70
2022-09-15T09:52:07.571Z,1.68
2022-09-15T09:53:07.635Z,1.73
2022-09-15T09:54:07.601Z,1.70
2022-09-15T09:55:07.573Z,2.21
2022-09-15T09:57:07.600Z,1.65
2022-09-15T09:58:07.626Z,1.78
2022-09-15T10:01:07.648Z,1.93
2022-09-15T10:02:07.592Z,1.57
2022-09-15T10:03:07.659Z,2.16
2022-09-15T10:04:07.594Z,1.61
2022-09-15T10:05:07.717Z,1.86
2022-09-15T10:07:07.611Z,1.52
2022-09-15T10:08:07.641Z,1.90
2022-09-15T10:09:07.600Z,1.83
2022-09-15T10:10:07.649Z,2.05
2022-09-15T10:11:07.606Z,2.00
2022-09-15T10:12:07.626Z,1.64
2022-09-15T10:13:07.663Z,1.76
2022-09-15T10:14:07.635Z,2.10
2022-09-15T10:15:07.626Z,2.02
2022-09-15T10:16:07.655Z,1.47
2022-09-15T10:17:07.737Z,1.50
2022-09-15T10:18:07.657Z,1.87
2022-09-15T10:19:07.629Z,1.62
2022-09-15T10:20:07.667Z,1.44
2022-09-15T10:21:07.651Z,2.15
2022-09-15T10:23:07.718Z,2.04
2022-09-15T10:24:13.581Z,1.67
2022-09-15T10:25:07.655Z,1.57
2022-09-15T10:26:07.664Z,1.82
2022-09-15T10:27:07.642Z,1.64
2022-09-15T10:28:07.692Z,1.69
2022-09-15T10:29:09.006Z,1.84
2022-09-15T10:30:07.767Z,1.92
2022-09-15T10:31:07.678Z,1.89
2022-09-15T10:32:07.776Z,1.94
2022-09-15T10:33:07.843Z,1.72
2022-09-15T10:34:07.686Z,1.57
2022-09-15T10:35:07.671Z,2.09
2022-09-15T10:36:07.682Z,1.62
2022-09-15T10:37:07.711Z,1.55
2022-09-15T10:38:07.741Z,1.59
2022-09-15T10:39:07.682Z,1.48
2022-09-15T10:40:07.814Z,1.89
2022-09-15T10:41:07.691Z,1.77
2022-09-15T10:42:07.924Z,1.74
2022-09-15T10:43:08.027Z,1.79
2022-09-15T10:44:07.883Z,2.11
2022-09-15T10:45:07.821Z,1.77
2022-09-15T10:46:08.004Z,1.70
2022-09-15T10:47:07.796Z,1.58
2022-09-15T10:48:07.914Z,1.78
2022-09-15T10:49:07.836Z,1.57
2022-09-15T10:50:07.860Z,1.66
2022-09-15T10:51:07.884Z,1.91
2022-09-15T10:52:07.871Z,1.46
2022-09-15T10:53:07.859Z,1.55
2022-09-15T10:54:07.878Z,1.81
2022-09-15T10:55:07.873Z,1.80
2022-09-15T10:56:07.887Z,1.73
2022-09-15T10:57:07.911Z,1.92
2022-09-15T10:58:08.055Z,1.62
2022-09-15T10:59:07.947Z,1.55
2022-09-15T11:00:07.929Z,1.83
2022-09-15T11:01:12.468Z,1.75
2022-09-15T11:02:07.929Z,1.71
2022-09-15T11:03:07.991Z,1.54
2022-09-15T11:04:07.900Z,1.95
2022-09-15T11:06:07.940Z,1.59
2022-09-15T11:07:07.932Z,1.80
2022-09-15T11:08:07.869Z,1.96
2022-09-15T11:09:07.965Z,1.87
2022-09-15T11:10:07.966Z,1.59
2022-09-15T11:11:07.968Z,1.79
2022-09-15T11:12:07.957Z,1.64
2022-09-15T11:14:07.992Z,1.91
2022-09-15T11:16:07.923Z,1.65
2022-09-15T11:17:07.922Z,1.69
2022-09-15T11:18:07.931Z,1.77
2022-09-15T11:19:07.948Z,1.76
2022-09-15T11:20:08.004Z,1.62
2022-09-15T11:21:07.903Z,1.66
2022-09-15T11:22:07.949Z,1.87
2022-09-15T11:23:07.972Z,1.72
2022-09-15T11:24:07.955Z,2.11
2022-09-15T11:25:07.985Z,1.93
2022-09-15T11:26:07.997Z,1.89
2022-09-15T11:27:07.813Z,1.71
2022-09-15T11:28:07.816Z,1.88
2022-09-15T11:29:07.827Z,2.17
2022-09-15T11:30:07.833Z,1.94
2022-09-15T11:31:07.859Z,2.00
2022-09-15T11:32:07.844Z,1.99
2022-09-15T11:33:07.820Z,1.71
2022-09-15T11:35:07.857Z,2.02
2022-09-15T11:36:07.846Z,1.60
2022-09-15T11:37:07.838Z,1.86
2022-09-15T11:40:07.999Z,2.16
2022-09-15T11:41:07.862Z,2.44
2022-09-15T11:42:07.855Z,2.13
2022-09-15T11:43:07.844Z,1.86
2022-09-15T11:44:07.847Z,1.97
2022-09-15T11:45:07.864Z,2.07
2022-09-15T11:46:07.948Z,1.77
2022-09-15T11:47:07.874Z,1.93
2022-09-15T11:48:07.879Z,3.25
2022-09-15T11:49:07.874Z,3.55
2022-09-15T11:50:07.946Z,4.49
2022-09-15T11:51:07.892Z,3.37
2022-09-15T11:52:07.877Z,3.21
2022-09-15T11:53:07.876Z,3.38
2022-09-15T11:54:07.877Z,3.67
2022-09-15T11:55:07.881Z,3.06
2022-09-15T11:56:07.897Z,2.02
2022-09-15T11:57:07.893Z,2.20
2022-09-15T11:58:07.891Z,2.41
2022-09-15T11:59:07.891Z,2.31
2022-09-15T12:00:07.971Z,2.32
2022-09-15T12:01:07.931Z,2.33
2022-09-15T12:02:07.948Z,2.64
2022-09-15T12:03:07.929Z,2.07
2022-09-15T12:04:07.918Z,1.78
2022-09-15T12:05:07.912Z,1.96
2022-09-15T12:06:07.941Z,2.65
2022-09-15T12:07:09.905Z,2.09
2022-09-15T12:08:07.932Z,1.81
2022-09-15T12:09:07.935Z,2.02
2022-09-15T12:10:07.928Z,2.06
2022-09-15T12:11:07.942Z,2.23
2022-09-15T12:12:07.927Z,1.66
2022-09-15T12:13:07.933Z,2.01
2022-09-15T12:14:07.923Z,2.31
2022-09-15T12:15:12.707Z,2.65
2022-09-15T12:16:07.977Z,2.69
2022-09-15T12:17:07.981Z,3.15
2022-09-15T12:18:21.355Z,2.46
2022-09-15T12:20:07.957Z,2.12
2022-09-15T12:21:07.945Z,2.34
2022-09-15T12:22:07.952Z,2.00
2022-09-15T12:23:07.960Z,1.97
2022-09-15T12:24:07.958Z,2.33
2022-09-15T12:25:07.965Z,2.28
2022-09-15T12:26:07.958Z,2.49
2022-09-15T12:27:07.986Z,2.37
2022-09-15T12:28:07.973Z,2.11
2022-09-15T12:29:07.992Z,2.13
2022-09-15T12:30:07.964Z,2.26
2022-09-15T12:31:08.081Z,2.32
2022-09-15T12:32:07.983Z,1.97
2022-09-15T12:33:07.977Z,2.39
2022-09-15T12:34:07.984Z,2.53
2022-09-15T12:36:07.999Z,2.73
2022-09-15T12:37:08.018Z,2.16
2022-09-15T12:38:08.008Z,2.32
2022-09-15T12:39:08.003Z,2.60
2022-09-15T12:41:08.008Z,2.69
2022-09-15T12:42:08.012Z,2.54
2022-09-15T12:43:08.019Z,2.63
2022-09-15T12:44:08.029Z,2.44
2022-09-15T12:45:08.013Z,2.27
2022-09-15T12:46:08.211Z,2.29
2022-09-15T12:48:08.029Z,2.32
2022-09-15T12:49:08.025Z,2.60
2022-09-15T12:50:08.022Z,2.72
2022-09-15T12:51:08.061Z,2.45
2022-09-15T12:52:12.910Z,2.48
2022-09-15T12:53:08.043Z,2.49
2022-09-15T12:54:08.018Z,2.46
2022-09-15T12:55:08.027Z,2.85
2022-09-15T12:56:08.045Z,2.67
2022-09-15T12:57:08.028Z,2.25
2022-09-15T12:58:08.030Z,2.62
2022-09-15T12:59:08.068Z,2.58
2022-09-15T13:00:08.048Z,3.00
2022-09-15T13:01:17.871Z,2.16
2022-09-15T13:02:08.113Z,2.14
2022-09-15T13:03:08.122Z,2.22
2022-09-15T13:04:08.056Z,2.28
2022-09-15T13:05:08.052Z,2.60
2022-09-15T13:06:08.087Z,2.43
2022-09-15T13:07:09.784Z,2.52
2022-09-15T13:08:08.077Z,2.12
2022-09-15T13:09:08.081Z,2.37
2022-09-15T13:10:08.103Z,2.18
2022-09-15T13:11:08.076Z,2.67
2022-09-15T13:13:08.093Z,2.72
2022-09-15T13:14:08.104Z,2.90
2022-09-15T13:15:08.124Z,2.13
2022-09-15T13:16:08.162Z,2.42
2022-09-15T13:17:08.104Z,2.21
2022-09-15T13:18:08.122Z,2.48
2022-09-15T13:19:08.129Z,2.29
2022-09-15T13:20:08.127Z,2.51
2022-09-15T13:22:08.105Z,2.73
2022-09-15T13:23:08.126Z,2.92
2022-09-15T13:24:08.137Z,2.92
2022-09-15T13:25:08.135Z,2.98
2022-09-15T13:26:08.133Z,2.53
2022-09-15T13:27:08.110Z,2.78
2022-09-15T13:28:08.151Z,2.45
2022-09-15T13:29:13.058Z,2.51
2022-09-15T13:30:08.152Z,2.90
2022-09-15T13:31:08.168Z,2.85
2022-09-15T13:32:08.132Z,2.45
2022-09-15T13:33:08.141Z,2.63
2022-09-15T13:35:13.038Z,2.41
2022-09-15T13:36:08.139Z,2.39
2022-09-15T13:39:08.159Z,2.84
2022-09-15T13:40:08.251Z,3.03
2022-09-15T13:41:08.146Z,2.35
2022-09-15T13:42:08.166Z,2.68
2022-09-15T13:43:08.160Z,2.66
2022-09-15T13:44:08.174Z,2.45
2022-09-15T13:45:08.189Z,2.24
2022-09-15T13:46:08.211Z,2.25
2022-09-15T13:47:08.177Z,2.80
2022-09-15T13:48:08.165Z,2.54
2022-09-15T13:49:08.198Z,2.58
2022-09-15T13:50:08.167Z,2.52
2022-09-15T13:51:08.188Z,2.84
2022-09-15T13:52:08.177Z,2.26
2022-09-15T13:53:08.194Z,2.26
2022-09-15T13:54:08.178Z,2.31
2022-09-15T13:55:08.216Z,2.25
2022-09-15T13:56:08.222Z,2.48
2022-09-15T13:57:08.201Z,2.44
2022-09-15T13:59:12.830Z,1.75
2022-09-15T14:00:13.669Z,2.21
2022-09-15T14:01:08.234Z,2.25
2022-09-15T14:02:08.479Z,2.01
2022-09-15T14:03:08.318Z,2.19
2022-09-15T14:04:08.215Z,2.34
2022-09-15T14:06:13.237Z,2.20
2022-09-15T14:07:08.265Z,2.47
2022-09-15T14:08:08.264Z,1.95
2022-09-15T14:09:08.251Z,1.88
2022-09-15T14:10:08.246Z,1.91
2022-09-15T14:11:08.241Z,1.99
2022-09-15T14:14:08.238Z,1.87
2022-09-15T14:16:11.841Z,2.11
2022-09-15T14:17:08.323Z,1.77
2022-09-15T14:18:08.247Z,1.73
2022-09-15T14:19:08.271Z,2.21
2022-09-15T14:20:08.276Z,2.03
2022-09-15T14:21:08.278Z,1.82
2022-09-15T14:22:08.274Z,2.09
2022-09-15T14:23:08.265Z,2.02
2022-09-15T14:24:08.280Z,1.52
2022-09-15T14:25:08.282Z,1.48
2022-09-15T14:26:08.265Z,1.03
2022-09-15T14:27:08.343Z,1.77
2022-09-15T14:28:08.298Z,1.55
2022-09-15T14:29:08.316Z,1.51
2022-09-15T14:30:08.286Z,1.73
2022-09-15T14:31:08.318Z,1.44
2022-09-15T14:32:08.335Z,1.43
2022-09-15T14:33:08.277Z,1.31
2022-09-15T14:34:08.301Z,1.11
2022-09-15T14:35:08.297Z,1.56
2022-09-15T14:36:08.311Z,1.34
2022-09-15T14:37:08.303Z,1.29
2022-09-15T14:38:08.298Z,1.43
2022-09-15T14:39:08.306Z,1.53
2022-09-15T14:40:08.584Z,1.61
2022-09-15T14:41:08.298Z,1.02
2022-09-15T14:42:08.329Z,1.22
2022-09-15T14:43:17.471Z,1.04
2022-09-15T14:44:08.322Z,1.19
2022-09-15T14:46:09.087Z,1.11
2022-09-15T14:47:08.328Z,1.23
2022-09-15T14:48:08.338Z,1.28
2022-09-15T14:49:08.332Z,1.24
2022-09-15T14:50:08.327Z,1.33
2022-09-15T14:51:08.350Z,1.40
2022-09-15T14:52:08.345Z,1.88
2022-09-15T14:53:08.336Z,1.58
2022-09-15T14:54:08.383Z,1.82
2022-09-15T14:56:08.585Z,1.43
2022-09-15T14:57:08.343Z,1.26
2022-09-15T14:58:08.371Z,1.43
2022-09-15T14:59:08.384Z,1.20
2022-09-15T15:00:08.343Z,1.29
2022-09-15T15:01:08.390Z,1.13
2022-09-15T15:02:08.430Z,1.11
2022-09-15T15:03:08.406Z,0.99
2022-09-15T15:05:08.397Z,1.20
2022-09-15T15:06:28.392Z,1.17
2022-09-15T15:07:08.367Z,1.07
2022-09-15T15:09:08.379Z,1.17
2022-09-15T15:10:08.439Z,1.39
2022-09-15T15:11:08.409Z,1.19
2022-09-15T15:12:08.417Z,1.59
2022-09-15T15:13:08.404Z,1.05
2022-09-15T15:14:08.556Z,1.93
2022-09-15T15:15:08.472Z,1.23
2022-09-15T15:17:08.713Z,1.27
2022-09-15T15:19:08.422Z,2.02
2022-09-15T15:20:13.536Z,1.59
2022-09-15T15:21:08.429Z,1.86
2022-09-15T15:22:08.424Z,2.32
2022-09-15T15:23:08.427Z,2.19
2022-09-15T15:24:08.430Z,2.32
2022-09-15T15:25:08.454Z,2.02
2022-09-15T15:26:08.414Z,1.65
2022-09-15T15:27:08.450Z,1.42
2022-09-15T15:28:08.423Z,1.31
2022-09-15T15:29:08.423Z,1.43
2022-09-15T15:30:08.458Z,1.49
2022-09-15T15:31:08.528Z,1.44
2022-09-15T15:32:08.581Z,1.17
2022-09-15T15:33:08.439Z,1.37
2022-09-15T15:34:08.470Z,1.57
2022-09-15T15:35:08.503Z,1.44
2022-09-15T15:36:08.449Z,1.30